Fort Lauderdale, FL (33331)

5:32 AM EST on February 25, 2017 (GMT -0500)
ME2664 | | Change Station
Active Advisory: Dense Fog Advisory

Elev 6 ft 26.04 °N, 80.35 °W | Updated 1 minute ago

Fog
Fog
66.0 °F
Feels Like 66.0 °F
N
1.0
Wind Variable Wind from WSW
Gusts 4.0 mph

Today
High -- | Low -- °F
--% Chance of Precip.
Yesterday
High -- | Low -- °F
Precip. -- in
Pressure 29.87 in
Visibility 0.2 miles
Clouds
Dew Point 65 °F
Humidity 98%
Rainfall 0.00 in
Snow Depth Not available.
6:48 AM 6:20 PM
Waning Crescent, 2% visible
SPECI KOPF 251018Z AUTO 26004KT 1/4SM FG VV002 19/19 A2987 RMK AO2 T01940189 $
Pressure 29.87 in
Visibility 0.2 miles
Clouds
Dew Point 65 °F
Humidity 98%
Rainfall 0.00 in
Snow Depth Not available.
6:48 AM 6:20 PM
Waning Crescent, 2% visible
SPECI KOPF 251018Z AUTO 26004KT 1/4SM FG VV002 19/19 A2987 RMK AO2 T01940189 $

Get Your Daily Forecast Email!

Thanks for signing up!

Be on the lookout for a verification email in your inbox.

You'll start receiving the daily forecast at 8 AM.

×

10-Day Weather Forecast

Almanac

Astronomy

Feb. 25, 2017 Rise Set
Actual Time
Civil Twilight
Nautical Twilight
Astronomical Twilight
Moon
Length of Visible Light
Length of Day
Tomorrow will be .
, % of the Moon is Illuminated

Today's Extremes

State Highs State Lows

Community

WunderPhotos

Upload Photos

1,962,540 photos uploaded!

WunderBlog® & News

Nearby

Air Quality

  Air Quality AQ Index Pollutant
Not available.

Snow Depth

Station Depth Elevation

Earthquake Activity

City Distance Mag. Time & Date
Minimum magnitude displayed is 2.5.

Coastal Water Temperatures

Place Temperature

Stations

Nearby Weather Stations

Station Location Temp. Windchill Dew Point Humidity Wind Precip. Elev Updated Type
                   

Watches & Warnings

Dense Fog Advisory
Issued: 4:04 AM EST Feb. 25, 2017 – National Weather Service

... Dense fog advisory remains in effect until 9 am EST this
morning...

* visibility... areas within the advisory area will see
visibilities down to 1/4 of a mile or less.

* Impacts... these visibilities will create dangerous driving
conditions in some of the roadways this morning.

Precautionary/preparedness actions...

A dense fog advisory means visibilities will frequently be
reduced to less than one quarter mile. If driving... slow down...
use your headlights... and leave plenty of distance ahead of you.